Montgomery City, Missouri
Current Conditions -  °F | °C
As of 12:15 PM on Sunday 21 Dec 2014 (Local Time) from KFYG Reporting Station
Overcast Overcast  
Wind Chill: 39°   Ceiling: 3800
Heat Index: 45°   Visibility: 10mi
Dew Point: 36°   Wind: 12mph
Humidity: 71%   Direction: 140°SE
Pressure: 30.08"   Gusts: NA
Location:  38.98°N, 91.5°W
Report Text: KFYG 211815Z AUTO 14010KT 10SM OVC038 07/02 A3008 RMK AO2
Loading
Personal Weather Stations






























Interactive Weather Map New forecast layout! Learn more

10-Day Weather Forecast

Advertisements
Track Severe Weather on mobile